Air Navigation Services of Czech Republic
Airport: LKMT Updated:  04.06.2020 10:30:25  UTC
 METAR LKMT 04.06. 10:30 ...
METAR LKMT 041030Z VRB03KT 9999 FEW040 21/11 Q0999 TEMPO 21012KT RMK REG QNH 0995=
 TAF LKMT 04.06. 05:00 ...
TAF LKMT 040500Z 0406/0512 VRB02KT CAVOK      BECMG 0408/0410 21012KT 9999 BKN040      TEMPO 0500/0512 23012G24KT 8000 RA BKN025      PROB40 TEMPO 0500/0512 4000 TSRA SCT020CB=